• Join FlightAware (Why Join?)
  • Login
  • US Flag 
12:55AM EDT


 

Airport Tracker/Info


-or-


 

Live Flight TrackerFlight Track Log ✈ FSR411 ✈ 16-May-2013 ✈ KADH - KDET

Flight Track Log - Related Links

Times and Time Zones

All times are in EDT time to prevent confusion due to time zone crossing. See the FSR411 flight status page for this flight to view local times or setup timezone preferences in your user account.

Time Position Orientation Groundspeed Altitude Reporting Facility
EDT Latitude Longitude Course Direction KTS MPH feet Rate Location/Type
03:19PM 34.7853 -96.6022 45° Northeast 221 254 5,600  Level Kansas City Center
03:20PM 34.8069 -96.5764 44° Northeast 387 445 6,700 2,880 Climbing Fort Worth Center
03:21PM 34.8400 -96.5206 54° Northeast 295 339 9,700 2,760 Climbing Fort Worth Center
03:22PM 34.8706 -96.4292 68° East 276 318 12,300 2,760 Climbing Fort Worth Center
03:23PM 34.9050 -96.3197 69° East 305 351 15,300 3,000 Climbing Fort Worth Center
03:24PM 34.9414 -96.1978 70° East 348 400 18,400 2,700 Climbing Fort Worth Center
03:25PM 35.2725 -96.0595 45° Northeast  Level FlightAware Approximate
03:25PM 34.9800 -96.0731 69° East 372 428 20,700  Level Fort Worth Center
03:26PM 35.0475 -95.9656 52° Northeast 389 448 22,600 2,220 Climbing Fort Worth Center
03:27PM 35.1214 -95.8575 50° Northeast 400 460 25,200 1,140 Climbing Fort Worth Center
03:29PM 35.2744 -95.6142 52° Northeast 468 539 26,000 1,020 Climbing Kansas City Center
03:30PM 35.3547 -95.4872 52° Northeast 474 545 28,200 1,980 Climbing Kansas City Center
03:31PM 35.4333 -95.3642 52° Northeast 465 535 30,200 1,860 Climbing Kansas City Center
03:32PM 35.5100 -95.2489 51° Northeast 459 528 32,100 1,920 Climbing Memphis Center
03:33PM 35.5836 -95.1306 53° Northeast 446 513 34,100 1,800 Climbing Memphis Center
03:34PM 35.6567 -95.0172 52° Northeast 435 501 35,800 1,320 Climbing Memphis Center
03:35PM 35.7256 -94.9011 54° Northeast 425 489 36,800 900 Climbing Memphis Center
03:36PM 35.7986 -94.7847 52° Northeast 425 489 37,600 780 Climbing Memphis Center
03:37PM 35.8717 -94.6658 53° Northeast 425 489 38,400 780 Climbing Memphis Center
03:38PM 35.9467 -94.5439 53° Northeast 425 489 39,200 900 Climbing Memphis Center
03:39PM 36.0214 -94.4247 52° Northeast 430 495 40,300 900 Climbing Memphis Center
03:40PM 36.0919 -94.3075 53° Northeast 430 495 41,000 300 Climbing Memphis Center
03:41PM 36.1644 -94.1850 54° Northeast 430 495 41,000  Level Memphis Center
03:42PM 36.2433 -94.0600 52° Northeast 442 509 41,000  Level Memphis Center
03:43PM 36.3181 -93.9319 54° Northeast 448 516 41,000  Level Memphis Center
03:44PM 36.3967 -93.8039 53° Northeast 453 521 41,000  Level Memphis Center
03:45PM 36.4731 -93.6731 54° Northeast 453 521 41,000  Level Memphis Center
03:46PM 36.5992 -93.4717 52° Northeast 466 536 41,000  Level Kansas City Center
03:47PM 36.6756 -93.3431 53° Northeast 463 533 41,000  Level Kansas City Center
03:48PM 36.7517 -93.2147 53° Northeast 462 532 41,000  Level Kansas City Center
03:49PM 36.8383 -93.0692 53° Northeast 463 533 41,000  Level Kansas City Center
03:50PM 36.9142 -92.9408 54° Northeast 460 529 41,000  Level Kansas City Center
03:51PM 36.9900 -92.8125 53° Northeast 460 529 41,000  Level Kansas City Center
03:52PM 37.0664 -92.6825 54° Northeast 462 532 41,000  Level Kansas City Center
03:53PM 37.1414 -92.5531 54° Northeast 461 531 41,000  Level Kansas City Center
03:54PM 37.2322 -92.3964 54° Northeast 463 533 41,000  Level Kansas City Center
03:55PM 37.3075 -92.2656 54° Northeast 463 533 41,000  Level Kansas City Center
03:56PM 37.3831 -92.1342 54° Northeast 465 535 41,000  Level Kansas City Center
03:58PM 37.4567 -92.0058 54° Northeast 460 529 41,000  Level Kansas City Center
03:59PM 37.5303 -91.8767 54° Northeast 458 527 41,000  Level Kansas City Center
04:00PM 37.6019 -91.7517 54° Northeast 452 520 41,000  Level Kansas City Center
04:01PM 37.6883 -91.6000 54° Northeast 447 514 41,000  Level Kansas City Center
04:02PM 37.7583 -91.4747 55° Northeast 442 509 41,000  Level Kansas City Center
04:03PM 37.8314 -91.3464 54° Northeast 445 512 41,000  Level Kansas City Center
04:04PM 37.9017 -91.2208 55° Northeast 442 509 41,000  Level Kansas City Center
04:05PM 37.9711 -91.0953 55° Northeast 438 504 41,000  Level Kansas City Center
04:06PM 38.0436 -90.9678 54° Northeast 440 506 41,000  Level Kansas City Center
04:07PM 38.1272 -90.8156 55° Northeast 440 506 41,000  Level Kansas City Center
04:08PM 38.1967 -90.6878 55° Northeast 441 507 41,000  Level Kansas City Center
04:09PM 38.2669 -90.5589 55° Northeast 443 510 41,000  Level Kansas City Center
04:10PM 38.3378 -90.4289 55° Northeast 447 514 41,000  Level Kansas City Center
04:11PM 38.4086 -90.2997 55° Northeast 449 517 41,000  Level Kansas City Center
04:12PM 38.4950 -90.1397 55° Northeast 466 536 41,000  Level Kansas City Center
04:13PM 38.5683 -90.0067 55° Northeast 466 536 41,000  Level Kansas City Center
04:14PM 38.6400 -89.8728 56° Northeast 465 535 41,000  Level Kansas City Center
04:15PM 38.7147 -89.7347 55° Northeast 478 550 41,000  Level Kansas City Center
04:16PM 38.8006 -89.5744 55° Northeast 468 539 41,000  Level Kansas City Center
04:17PM 38.8736 -89.4367 56° Northeast 467 537 41,000  Level Kansas City Center
04:18PM 38.9514 -89.2878 56° Northeast 467 537 41,000  Level Kansas City Center
04:19PM 39.0225 -89.1503 56° Northeast 463 533 41,000  Level Kansas City Center
04:20PM 39.1011 -89.0031 55° Northeast 463 533 41,000  Level Kansas City Center
04:21PM 39.1633 -88.8850 56° Northeast 465 535 41,000  Level Kansas City Center
04:22PM 39.2356 -88.7464 56° Northeast 465 535 41,000  Level Kansas City Center
04:23PM 39.3214 -88.5811 56° Northeast 465 535 41,000  Level Kansas City Center
04:24PM 39.3858 -88.4542 57° Northeast 464 534 41,000  Level Kansas City Center
04:25PM 39.4617 -88.2814 60° Northeast 464 534 41,000  Level Kansas City Center
04:26PM 39.5147 -88.1297 66° East 462 532 41,000 -360 Level Kansas City Center
04:28PM 39.5700 -87.9761 65° Northeast 465 535 40,300 -1,260 Descending Kansas City Center
04:28PM 39.6106 -87.8644 65° Northeast 460 529 38,700 -1,920 Descending Indianapolis Center
04:29PM 39.6667 -87.7150 64° Northeast 460 529 36,800 -1,680 Descending Indianapolis Center
04:30PM 39.7208 -87.5650 65° Northeast 460 529 35,300 -1,020 Descending Indianapolis Center
04:31PM 39.7792 -87.4128 63° Northeast 471 542 34,800 -840 Descending Indianapolis Center
04:32PM 39.8536 -87.2322 62° Northeast 472 543 33,600 -900 Descending Indianapolis Center
04:33PM 39.9347 -87.0944 52° Northeast 477 549 33,000 -300 Descending Indianapolis Center
04:35PM 40.0147 -86.9542 53° Northeast 481 554 33,000  Level Indianapolis Center
04:36PM 40.0950 -86.8119 54° Northeast 484 557 33,000  Level Indianapolis Center
04:37PM 40.1744 -86.6683 54° Northeast 485 558 33,000  Level Indianapolis Center
04:38PM 40.2550 -86.5239 54° Northeast 489 563 33,000 -120 Level Indianapolis Center
04:39PM 40.3344 -86.3794 54° Northeast 487 560 32,800 -720 Descending Indianapolis Center
04:40PM 40.4289 -86.2083 54° Northeast 482 555 31,600 -1,080 Descending Indianapolis Center
04:41PM 40.5089 -86.0625 54° Northeast 490 564 30,600 -1,560 Descending Indianapolis Center
04:42PM 40.5858 -85.9194 55° Northeast 482 555 28,400 -2,280 Descending Indianapolis Center
04:43PM 40.6592 -85.7850 54° Northeast 457 526 25,900 -2,220 Descending Indianapolis Center
04:44PM 40.7331 -85.6481 55° Northeast 458 527 23,900 -2,220 Descending Indianapolis Center
04:45PM 40.8053 -85.5144 54° Northeast 451 519 21,400 -1,920 Descending Indianapolis Center
04:46PM 40.8753 -85.3419 62° Northeast 453 521 20,000 -1,200 Descending Indianapolis Center
04:47PM 40.9250 -85.1942 66° East 445 512 19,000 -1,020 Descending Indianapolis Center
04:48PM 40.9750 -85.0508 65° Northeast 433 498 18,000 -1,020 Descending Indianapolis Center
04:49PM 41.0250 -84.9047 66° East 430 495 17,000 -540 Descending Indianapolis Center
04:50PM 41.0761 -84.7586 65° Northeast 433 498 17,000  Level Indianapolis Center
04:51PM 41.1306 -84.5972 66° East 432 497 17,000  Level Cleveland Center
04:52PM 41.1792 -84.4569 65° Northeast 432 497 17,000  Level Cleveland Center